This is the latest recevied weather packets stored in our database for station/object KC3WWU. If no packets are shown the sender has not sent any weather packets the latest 10 day(s).
| Time | Temp. | Humidity | Pressure | Rain* | Wind** | Luminosity | Snow |
|---|---|---|---|---|---|---|---|
| 1777966067 | 14.44° C | 74% | 1006.4 hPa | 0 mm | - | 0 W/m² | - |
| 1777965763 | 14.44° C | 74% | 1006.4 hPa | 0 mm | - | 0 W/m² | - |
| 1777965459 | 13.89° C | 80% | 1006.1 hPa | 0 mm | - | 0 W/m² | - |
| 1777965156 | 13.89° C | 81% | 1006.3 hPa | 0 mm | - | 0 W/m² | - |
| 1777964854 | 13.89° C | 80% | 1006.3 hPa | 0 mm | - | 0 W/m² | - |
| 1777964550 | 13.89° C | 78% | 1006.2 hPa | 0 mm | - | 0 W/m² | - |
| 1777964246 | 13.33° C | 82% | 1006.3 hPa | 0 mm | - | 0 W/m² | - |
| 1777963943 | 12.22° C | 91% | 1006.3 hPa | 0 mm | - | 0 W/m² | - |
| 1777963640 | 12.78° C | 89% | 1006.3 hPa | 0 mm | - | 0 W/m² | - |
| 1777963337 | 13.89° C | 84% | 1006.4 hPa | 0 mm | - | 0 W/m² | - |
| 1777963035 | 13.89° C | 77% | 1006.4 hPa | 0 mm | - | 0 W/m² | - |
| 1777962731 | 14.44° C | 74% | 1006.2 hPa | 0 mm | - | 0 W/m² | - |
| 1777962427 | 14.44° C | 75% | 1006.2 hPa | 0 mm | - | 0 W/m² | - |
| 1777962125 | 13.89° C | 76% | 1006.1 hPa | 0 mm | - | 0 W/m² | - |
| 1777961821 | 14.44° C | 74% | 1006.4 hPa | 0 mm | - | 0 W/m² | - |
| 1777961520 | 13.89° C | 74% | 1006.4 hPa | 0 mm | - | 0 W/m² | - |
| 1777961217 | 14.44° C | 75% | 1006.4 hPa | 0 mm | - | 0 W/m² | - |
| 1777960913 | 14.44° C | 74% | 1006.7 hPa | 0 mm | - | 0 W/m² | - |
| 1777960609 | 13.89° C | 76% | 1006.3 hPa | 0 mm | - | 0 W/m² | - |
| 1777960306 | 13.89° C | 77% | 1006.6 hPa | 0 mm | - | 0 W/m² | - |
| 1777960003 | 13.89° C | 77% | 1006.7 hPa | 0 mm | - | 0 W/m² | - |
| 1777959701 | 13.89° C | 77% | 1006.8 hPa | 0 mm | - | 0 W/m² | - |
| 1777959398 | 14.44° C | 75% | 1006.8 hPa | 0 mm | - | 0 W/m² | - |
| 1777959095 | 14.44° C | 71% | 1006.8 hPa | 0 mm | - | 0 W/m² | - |
| 1777958792 | 14.44° C | 74% | 1006.8 hPa | 0 mm | - | 0 W/m² | - |
* Rain latest hour (hover to see other rain measurements)
** Current wind speed in m/s (hover to see current wind gust speed)